Time;durP1;ratioP1;P1;durP2;ratioP2;P2;SDS_P1;SDS_P2;PMS_P1;PMS_P2;Temp;Humidity;BMP_temperature;BMP_pressure;BME280_temperature;BME280_humidity;BME280_pressure;Samples;Min_cycle;Max_cycle;Signal;HPM_P1;HPM_P2
2024/02/25 00:00:22;;;;;;;0.00;0.00;;;24.80;48.10;;;;;;5015044;28;20221;-40
2024/02/25 00:02:53;;;;;;;0.00;0.00;;;24.90;48.10;;;;;;5014920;28;20228;-40
2024/02/25 00:05:25;;;;;;;0.00;0.00;;;24.90;48.10;;;;;;5013753;28;20197;-40
2024/02/25 00:07:56;;;;;;;0.00;0.00;;;24.90;48.10;;;;;;5002113;28;20201;-41
2024/02/25 00:10:26;;;;;;;0.00;0.00;;;24.90;48.10;;;;;;4994882;28;20217;-42
2024/02/25 00:12:57;;;;;;;0.00;0.00;;;24.90;48.10;;;;;;4995591;28;20202;-42
2024/02/25 00:15:28;;;;;;;0.00;0.00;;;24.90;48.10;;;;;;4994532;28;20225;-41
2024/02/25 00:17:58;;;;;;;0.00;0.00;;;24.90;48.10;;;;;;4994652;28;20574;-42
2024/02/25 00:20:31;;;;;;;0.00;0.00;;;25.00;48.00;;;;;;4994696;28;20701;-43
2024/02/25 00:23:02;;;;;;;0.00;0.00;;;25.00;47.90;;;;;;4995073;28;20267;-42
2024/02/25 00:25:32;;;;;;;0.00;0.00;;;25.00;47.90;;;;;;4995027;28;20586;-43
2024/02/25 00:28:03;;;;;;;0.00;0.00;;;25.00;47.90;;;;;;4994941;28;20202;-42
2024/02/25 00:30:34;;;;;;;0.00;0.00;;;25.00;48.00;;;;;;4998326;28;20217;-41
2024/02/25 00:33:04;;;;;;;0.00;0.00;;;25.00;48.00;;;;;;5014304;28;20201;-45
2024/02/25 00:35:37;;;;;;;0.00;0.00;;;25.00;48.10;;;;;;5014080;28;20588;-46
2024/02/25 00:38:09;;;;;;;0.00;0.00;;;25.00;48.10;;;;;;5014114;28;20207;-41
2024/02/25 00:40:40;;;;;;;0.00;0.00;;;25.00;48.10;;;;;;5014201;28;20223;-41
2024/02/25 00:43:10;;;;;;;0.00;0.00;;;25.10;48.20;;;;;;5014497;28;20203;-41
2024/02/25 00:45:41;;;;;;;0.00;0.00;;;25.00;48.10;;;;;;5013404;28;20208;-43
2024/02/25 00:48:12;;;;;;;0.00;0.00;;;25.10;48.20;;;;;;5013467;28;20204;-41
2024/02/25 00:50:44;;;;;;;0.00;0.00;;;25.10;48.20;;;;;;5013144;28;20232;-42
2024/02/25 00:53:16;;;;;;;0.00;0.00;;;25.10;48.20;;;;;;5013039;28;20205;-41
2024/02/25 00:55:47;;;;;;;0.00;0.00;;;25.10;48.20;;;;;;5003057;28;20300;-43
2024/02/25 00:58:17;;;;;;;0.00;0.00;;;25.10;48.10;;;;;;4993279;28;20253;-41
2024/02/25 01:00:48;;;;;;;0.00;0.00;;;25.10;48.10;;;;;;5004941;28;20228;-39
2024/02/25 01:03:19;;;;;;;0.00;0.00;;;25.10;48.10;;;;;;5009950;28;20208;-42
2024/02/25 01:05:51;;;;;;;0.00;0.00;;;25.10;48.10;;;;;;5010157;28;20204;-41
2024/02/25 01:08:22;;;;;;;0.10;0.10;;;25.10;48.10;;;;;;5010283;28;20208;-40
2024/02/25 01:10:53;;;;;;;0.00;0.00;;;25.10;48.10;;;;;;5000184;28;20220;-41
2024/02/25 01:13:24;;;;;;;0.00;0.00;;;25.10;48.00;;;;;;4997779;28;20653;-40
2024/02/25 01:15:54;;;;;;;0.00;0.00;;;25.10;48.00;;;;;;5030038;28;20224;-40
2024/02/25 01:18:25;;;;;;;0.00;0.00;;;25.20;47.90;;;;;;4992101;28;20764;-41
2024/02/25 01:20:57;;;;;;;0.00;0.00;;;25.20;47.90;;;;;;4989808;28;20225;-40
2024/02/25 01:23:28;;;;;;;0.00;0.00;;;25.10;47.80;;;;;;4992931;28;20212;-41
2024/02/25 01:25:59;;;;;;;0.00;0.00;;;25.10;47.80;;;;;;4990590;28;20201;-39
2024/02/25 01:28:30;;;;;;;0.00;0.00;;;25.10;47.70;;;;;;5025690;28;20204;-40
2024/02/25 01:31:01;;;;;;;0.00;0.00;;;25.10;47.70;;;;;;5028783;28;20307;-40
2024/02/25 01:33:31;;;;;;;0.00;0.00;;;25.20;48.40;;;;;;5028342;28;20204;-40
2024/02/25 01:36:04;;;;;;;0.00;0.00;;;25.20;47.80;;;;;;5026247;28;20236;-41
2024/02/25 01:38:34;;;;;;;0.00;0.00;;;25.20;47.80;;;;;;5005957;28;20676;-40
2024/02/25 01:41:05;;;;;;;0.00;0.00;;;25.20;47.80;;;;;;5021671;28;20293;-39
2024/02/25 01:43:39;;;;;;;0.00;0.00;;;25.20;47.80;;;;;;5028469;28;20204;-40
2024/02/25 01:46:10;;;;;;;0.00;0.00;;;25.20;47.80;;;;;;5028172;28;20253;-40
2024/02/25 01:48:41;;;;;;;0.00;0.00;;;25.20;47.70;;;;;;5027621;28;20235;-40
2024/02/25 01:51:14;;;;;;;0.03;0.03;;;25.20;47.70;;;;;;5028240;28;20204;-39
2024/02/25 01:53:45;;;;;;;0.00;0.00;;;25.20;47.60;;;;;;5022487;28;20197;-40
2024/02/25 01:56:16;;;;;;;0.00;0.00;;;25.30;47.60;;;;;;5008583;28;20270;-40
2024/02/25 01:58:52;;;;;;;0.00;0.00;;;25.30;47.60;;;;;;5008788;28;20603;-41
2024/02/25 02:01:24;;;;;;;0.00;0.00;;;25.30;47.60;;;;;;5008629;28;20211;-40
2024/02/25 02:03:55;;;;;;;0.00;0.00;;;25.30;48.10;;;;;;5008793;28;20416;-39
2024/02/25 02:06:28;;;;;;;0.00;0.00;;;25.30;47.50;;;;;;5009792;28;20205;-39
2024/02/25 02:08:59;;;;;;;0.00;0.00;;;25.30;47.40;;;;;;5007945;28;20224;-40
2024/02/25 02:11:29;;;;;;;0.00;0.00;;;25.30;47.40;;;;;;5008514;28;20601;-39
2024/02/25 02:14:00;;;;;;;0.00;0.00;;;25.30;47.30;;;;;;5008955;28;20204;-40
2024/02/25 02:16:30;;;;;;;0.00;0.00;;;25.30;47.10;;;;;;5009568;28;20704;-40
2024/02/25 02:19:01;;;;;;;0.00;0.00;;;25.30;47.00;;;;;;5011274;28;20212;-40
2024/02/25 02:21:34;;;;;;;0.00;0.00;;;25.30;47.00;;;;;;5011783;28;20197;-39
2024/02/25 02:24:04;;;;;;;0.10;0.10;;;25.30;47.00;;;;;;5011959;28;20349;-41
2024/02/25 02:26:35;;;;;;;0.00;0.00;;;25.30;47.00;;;;;;5012166;28;20200;-40
2024/02/25 02:29:05;;;;;;;0.00;0.00;;;25.30;46.90;;;;;;5011720;28;20267;-40
2024/02/25 02:31:36;;;;;;;0.00;0.00;;;25.40;46.90;;;;;;5010400;28;20188;-40
2024/02/25 02:34:07;;;;;;;0.00;0.00;;;25.40;46.80;;;;;;5010834;28;20196;-41
2024/02/25 02:36:40;;;;;;;0.00;0.00;;;25.40;46.80;;;;;;5011254;28;20286;-40
2024/02/25 02:39:11;;;;;;;0.00;0.00;;;25.40;46.60;;;;;;5011472;28;20263;-42
2024/02/25 02:41:41;;;;;;;0.00;0.00;;;25.40;46.60;;;;;;5011758;28;20203;-39
2024/02/25 02:44:12;;;;;;;0.00;0.00;;;25.40;46.60;;;;;;5011360;28;20200;-41
2024/02/25 02:46:43;;;;;;;0.00;0.00;;;25.40;46.70;;;;;;5011464;28;20641;-40
2024/02/25 02:49:13;;;;;;;0.00;0.00;;;25.40;46.60;;;;;;5010954;28;20228;-39
2024/02/25 02:51:46;;;;;;;0.00;0.00;;;25.40;46.50;;;;;;5011716;28;21333;-41
2024/02/25 02:54:17;;;;;;;0.00;0.00;;;25.40;46.40;;;;;;5011531;28;20192;-39
2024/02/25 02:56:47;;;;;;;0.00;0.00;;;25.40;46.40;;;;;;5012075;28;20715;-39
2024/02/25 02:59:18;;;;;;;0.00;0.00;;;25.40;46.30;;;;;;5011314;28;20685;-41
2024/02/25 03:01:52;;;;;;;0.00;0.00;;;25.40;46.40;;;;;;5011359;28;20700;-39
2024/02/25 03:04:22;;;;;;;0.00;0.00;;;25.40;46.30;;;;;;5011647;28;20197;-39
2024/02/25 03:06:55;;;;;;;0.00;0.00;;;25.40;46.10;;;;;;5011419;28;20581;-40
2024/02/25 03:09:26;;;;;;;0.00;0.00;;;25.40;46.10;;;;;;5011676;28;20242;-39
2024/02/25 03:11:57;;;;;;;0.00;0.00;;;25.40;46.10;;;;;;5011800;28;20215;-39
2024/02/25 03:14:27;;;;;;;0.00;0.00;;;25.40;46.10;;;;;;5007574;28;20181;-39
2024/02/25 03:16:58;;;;;;;0.00;0.00;;;25.40;46.20;;;;;;5013038;28;20232;-39
2024/02/25 03:19:29;;;;;;;0.00;0.00;;;25.40;46.10;;;;;;5014762;28;20220;-39
2024/02/25 03:22:01;;;;;;;0.00;0.00;;;25.40;46.10;;;;;;5014798;28;20752;-40
2024/02/25 03:24:32;;;;;;;0.00;0.00;;;25.40;46.10;;;;;;5015269;28;20657;-40
2024/02/25 03:27:02;;;;;;;0.00;0.00;;;25.40;46.10;;;;;;5015806;28;20193;-39
2024/02/25 03:29:33;;;;;;;0.00;0.00;;;25.40;46.10;;;;;;5015111;28;20220;-39
2024/02/25 03:32:04;;;;;;;0.00;0.00;;;25.40;46.10;;;;;;5011679;28;20197;-39
2024/02/25 03:34:34;;;;;;;0.00;0.00;;;25.40;46.10;;;;;;5015074;28;20197;-40
2024/02/25 03:37:07;;;;;;;0.00;0.00;;;25.40;46.00;;;;;;5014916;28;20700;-41
2024/02/25 03:39:38;;;;;;;0.00;0.00;;;25.50;45.90;;;;;;5015098;28;20223;-42
2024/02/25 03:42:08;;;;;;;0.00;0.00;;;25.50;46.00;;;;;;5015197;28;20209;-40
2024/02/25 03:44:39;;;;;;;0.00;0.00;;;25.40;45.90;;;;;;5015157;28;20259;-40
2024/02/25 03:47:10;;;;;;;0.00;0.00;;;25.40;46.00;;;;;;5014641;28;20201;-39
2024/02/25 03:49:43;;;;;;;0.00;0.00;;;25.40;45.90;;;;;;5014869;28;20220;-42
2024/02/25 03:52:16;;;;;;;0.00;0.00;;;25.40;46.00;;;;;;5014928;28;20205;-40
2024/02/25 03:54:49;;;;;;;0.00;0.00;;;25.40;46.00;;;;;;5014750;28;20197;-43
2024/02/25 03:57:20;;;;;;;0.00;0.00;;;25.40;46.00;;;;;;5014822;28;20231;-40
2024/02/25 03:59:51;;;;;;;0.00;0.00;;;25.50;46.00;;;;;;5014330;28;20221;-42
2024/02/25 04:02:21;;;;;;;0.00;0.00;;;25.40;46.00;;;;;;5013875;28;20220;-42
2024/02/25 04:04:52;;;;;;;0.00;0.00;;;25.40;45.90;;;;;;5014422;28;20197;-42
2024/02/25 04:07:25;;;;;;;0.00;0.00;;;25.40;45.80;;;;;;5000463;28;20214;-41
2024/02/25 04:09:55;;;;;;;0.00;0.00;;;25.40;45.80;;;;;;4994332;28;20218;-41
2024/02/25 04:12:26;;;;;;;0.00;0.00;;;25.40;45.80;;;;;;4994833;28;20201;-41
2024/02/25 04:14:56;;;;;;;0.00;0.00;;;25.40;45.90;;;;;;4993543;28;20197;-42
2024/02/25 04:17:29;;;;;;;0.00;0.00;;;25.40;45.80;;;;;;4998881;28;20229;-43
2024/02/25 04:20:00;;;;;;;0.00;0.00;;;25.40;45.80;;;;;;5010233;28;20229;-41
2024/02/25 04:22:32;;;;;;;0.00;0.00;;;25.40;45.80;;;;;;5009418;28;20586;-43
2024/02/25 04:25:03;;;;;;;0.00;0.00;;;25.40;45.90;;;;;;5009817;28;20197;-42
2024/02/25 04:27:34;;;;;;;0.00;0.00;;;25.40;45.90;;;;;;5009814;28;20209;-41
2024/02/25 04:30:04;;;;;;;0.00;0.00;;;25.40;45.90;;;;;;5025892;28;20219;-41
2024/02/25 04:32:39;;;;;;;0.00;0.00;;;25.40;45.90;;;;;;5030617;28;20208;-41
2024/02/25 04:35:10;;;;;;;0.00;0.00;;;25.40;46.00;;;;;;5007758;28;20279;-41
2024/02/25 04:37:43;;;;;;;0.00;0.00;;;25.40;45.90;;;;;;5011096;28;20239;-41
2024/02/25 04:40:14;;;;;;;0.00;0.00;;;25.30;45.90;;;;;;5005179;28;20228;-41
2024/02/25 04:42:44;;;;;;;0.00;0.00;;;25.30;45.90;;;;;;5028999;28;20261;-41
2024/02/25 04:45:15;;;;;;;0.00;0.00;;;25.30;45.90;;;;;;5030245;28;20200;-41
2024/02/25 04:47:46;;;;;;;0.00;0.00;;;25.30;45.90;;;;;;5015393;28;20205;-42
2024/02/25 04:50:16;;;;;;;0.00;0.00;;;25.30;46.00;;;;;;5010464;28;20235;-41
2024/02/25 04:52:49;;;;;;;0.00;0.00;;;25.30;46.00;;;;;;5009998;28;20204;-40
2024/02/25 04:55:20;;;;;;;0.00;0.00;;;25.30;46.00;;;;;;5024258;28;20683;-41
2024/02/25 04:57:52;;;;;;;0.00;0.00;;;25.30;46.00;;;;;;5030185;28;20239;-41
2024/02/25 05:00:23;;;;;;;0.00;0.00;;;25.30;46.00;;;;;;5029227;28;20228;-41
2024/02/25 05:02:54;;;;;;;0.00;0.00;;;25.30;46.00;;;;;;5029021;28;20214;-42
2024/02/25 05:05:25;;;;;;;0.00;0.00;;;25.30;46.00;;;;;;5028882;28;20768;-41
2024/02/25 05:07:57;;;;;;;0.00;0.00;;;25.20;46.00;;;;;;5015045;28;20204;-41
2024/02/25 05:10:28;;;;;;;0.00;0.00;;;25.20;46.00;;;;;;5029506;28;20734;-41
2024/02/25 05:12:59;;;;;;;0.00;0.00;;;25.20;46.00;;;;;;5012818;28;20197;-41
2024/02/25 05:15:32;;;;;;;0.00;0.00;;;25.20;46.00;;;;;;5009968;28;20212;-41
2024/02/25 05:18:03;;;;;;;0.00;0.00;;;25.20;46.00;;;;;;5009973;28;20229;-40
2024/02/25 05:20:34;;;;;;;0.00;0.00;;;25.20;46.00;;;;;;5009411;28;20591;-41
2024/02/25 05:23:07;;;;;;;0.00;0.00;;;25.20;46.00;;;;;;4995478;28;20837;-40
2024/02/25 05:25:38;;;;;;;0.00;0.00;;;25.10;45.90;;;;;;4990270;28;20205;-42
2024/02/25 05:28:09;;;;;;;0.00;0.00;;;25.20;46.00;;;;;;4990187;28;20601;-40
2024/02/25 05:30:39;;;;;;;0.00;0.00;;;25.10;46.00;;;;;;4989854;28;20244;-41
2024/02/25 05:33:10;;;;;;;0.00;0.00;;;25.10;46.00;;;;;;4996103;28;20192;-41
2024/02/25 05:35:41;;;;;;;0.00;0.00;;;25.10;46.00;;;;;;5025855;28;20474;-43
2024/02/25 05:38:14;;;;;;;0.00;0.00;;;25.10;46.60;;;;;;4989465;28;20268;-42
2024/02/25 05:40:45;;;;;;;0.00;0.00;;;25.10;46.00;;;;;;4992150;28;20556;-41
2024/02/25 05:43:15;;;;;;;0.00;0.00;;;25.10;46.00;;;;;;4989557;28;20578;-41
2024/02/25 05:45:46;;;;;;;0.00;0.00;;;25.10;46.00;;;;;;4989809;28;20205;-41
2024/02/25 05:48:16;;;;;;;0.00;0.00;;;25.10;46.00;;;;;;5023310;28;20219;-41
2024/02/25 05:50:47;;;;;;;0.08;0.08;;;25.00;45.90;;;;;;5029051;28;20223;-40
2024/02/25 05:53:20;;;;;;;0.00;0.00;;;25.00;45.90;;;;;;5028305;28;20204;-43
2024/02/25 05:55:50;;;;;;;0.00;0.00;;;25.00;46.00;;;;;;5028503;28;20208;-41
2024/02/25 05:58:21;;;;;;;0.00;0.00;;;25.00;46.00;;;;;;5029058;28;20239;-40
2024/02/25 06:00:52;;;;;;;0.00;0.00;;;24.90;46.00;;;;;;5023248;28;20235;-40
2024/02/25 06:03:22;;;;;;;0.00;0.00;;;24.90;46.00;;;;;;5008880;28;20231;-41
2024/02/25 06:05:56;;;;;;;0.00;0.00;;;24.90;46.00;;;;;;5008771;28;20200;-41
2024/02/25 06:08:29;;;;;;;0.00;0.00;;;24.90;46.00;;;;;;5008884;28;20200;-40
2024/02/25 06:11:00;;;;;;;0.00;0.00;;;24.90;46.10;;;;;;5009048;28;20220;-41
2024/02/25 06:13:30;;;;;;;0.00;0.00;;;24.90;46.10;;;;;;5013548;28;20192;-40
2024/02/25 06:16:01;;;;;;;0.00;0.00;;;24.90;46.50;;;;;;5028700;28;20224;-41
2024/02/25 06:18:32;;;;;;;0.00;0.00;;;24.90;46.10;;;;;;5028550;28;20227;-41
2024/02/25 06:21:02;;;;;;;0.00;0.00;;;24.90;46.10;;;;;;5003412;28;20221;-41
2024/02/25 06:23:35;;;;;;;0.00;0.00;;;24.80;46.00;;;;;;5008122;28;20255;-42
2024/02/25 06:26:07;;;;;;;0.00;0.00;;;24.80;46.10;;;;;;5006597;28;20205;-41
2024/02/25 06:28:38;;;;;;;0.00;0.00;;;24.80;46.10;;;;;;5025298;28;20204;-42
2024/02/25 06:31:08;;;;;;;0.00;0.00;;;24.80;46.10;;;;;;5028516;28;20595;-41
2024/02/25 06:33:39;;;;;;;0.00;0.00;;;24.80;46.10;;;;;;5012532;28;20211;-40
2024/02/25 06:36:19;;;;;;;0.00;0.00;;;24.80;46.10;;;;;;4991989;28;20208;-41
2024/02/25 06:38:52;;;;;;;0.08;0.08;;;24.70;46.10;;;;;;5008373;28;20652;-41
2024/02/25 06:41:23;;;;;;;0.00;0.00;;;24.70;46.10;;;;;;5023978;28;20204;-43
2024/02/25 06:43:54;;;;;;;0.00;0.00;;;24.70;46.10;;;;;;5027547;28;20203;-41
2024/02/25 06:46:25;;;;;;;0.00;0.00;;;24.70;46.10;;;;;;5027033;28;20200;-41
2024/02/25 06:48:56;;;;;;;0.00;0.00;;;24.70;46.10;;;;;;5027897;28;20846;-41
2024/02/25 06:51:28;;;;;;;0.00;0.00;;;24.70;46.20;;;;;;5025965;28;20207;-41
2024/02/25 06:54:01;;;;;;;0.00;0.00;;;24.70;46.20;;;;;;5006291;28;20296;-42
2024/02/25 06:56:32;;;;;;;0.00;0.00;;;24.70;46.20;;;;;;5006966;28;20815;-46
2024/02/25 06:59:03;;;;;;;0.00;0.00;;;24.60;46.10;;;;;;5007040;28;20240;-41
2024/02/25 07:01:33;;;;;;;0.00;0.00;;;24.60;46.20;;;;;;5007781;28;20201;-41
2024/02/25 07:04:04;;;;;;;0.00;0.00;;;24.60;46.10;;;;;;5008023;28;20679;-41
2024/02/25 07:06:34;;;;;;;0.00;0.00;;;24.60;46.10;;;;;;5014414;28;20200;-41
2024/02/25 07:09:07;;;;;;;0.05;0.05;;;24.60;46.20;;;;;;5007596;28;20568;-40
2024/02/25 07:11:42;;;;;;;0.00;0.00;;;24.60;46.20;;;;;;5007689;28;20192;-43
2024/02/25 07:14:12;;;;;;;0.00;0.00;;;24.50;46.20;;;;;;5008502;28;20200;-43
2024/02/25 07:16:45;;;;;;;0.05;0.05;;;24.50;46.20;;;;;;5006910;28;20685;-44
2024/02/25 07:19:16;;;;;;;0.00;0.00;;;24.50;46.20;;;;;;4998770;28;20228;-42
2024/02/25 07:21:47;;;;;;;0.00;0.00;;;24.50;46.20;;;;;;4991177;28;20267;-43
2024/02/25 07:24:19;;;;;;;0.00;0.00;;;24.50;46.20;;;;;;4994358;28;20213;-42
2024/02/25 07:26:51;;;;;;;0.00;0.00;;;24.50;46.20;;;;;;4992358;28;20606;-41
2024/02/25 07:29:21;;;;;;;0.00;0.00;;;24.40;46.80;;;;;;4991695;28;20590;-41
2024/02/25 07:31:54;;;;;;;0.00;0.00;;;24.40;46.20;;;;;;4991599;28;20224;-41
2024/02/25 07:34:25;;;;;;;0.00;0.00;;;24.40;46.30;;;;;;4991755;28;20204;-42
2024/02/25 07:36:56;;;;;;;0.00;0.00;;;24.40;46.30;;;;;;5001059;28;20205;-41
2024/02/25 07:39:28;;;;;;;0.00;0.00;;;24.40;46.40;;;;;;5011142;28;20219;-41
2024/02/25 07:41:59;;;;;;;0.00;0.00;;;24.40;46.40;;;;;;5011101;28;20209;-43
2024/02/25 07:44:29;;;;;;;0.00;0.00;;;24.40;46.40;;;;;;5011016;28;20199;-44
2024/02/25 07:47:00;;;;;;;0.10;0.10;;;24.40;46.40;;;;;;5009201;28;20197;-43
2024/02/25 07:49:31;;;;;;;0.00;0.00;;;24.30;46.40;;;;;;5009695;28;20223;-43
2024/02/25 07:52:01;;;;;;;0.00;0.00;;;24.30;46.30;;;;;;5010058;28;20201;-43
2024/02/25 07:54:34;;;;;;;0.00;0.00;;;24.30;46.30;;;;;;5010529;28;20193;-42
2024/02/25 07:57:04;;;;;;;0.00;0.00;;;24.30;46.40;;;;;;5011014;28;20220;-43
2024/02/25 07:59:35;;;;;;;0.00;0.00;;;24.30;46.30;;;;;;5011111;28;20577;-43
2024/02/25 08:02:06;;;;;;;0.10;0.10;;;24.30;46.40;;;;;;5008177;28;20568;-43
2024/02/25 08:04:38;;;;;;;0.00;0.00;;;24.30;46.30;;;;;;5013612;28;20204;-43
2024/02/25 08:07:09;;;;;;;0.00;0.00;;;24.30;46.40;;;;;;5013501;28;20212;-41
2024/02/25 08:09:41;;;;;;;0.00;0.00;;;24.30;46.30;;;;;;5010976;28;20224;-42
2024/02/25 08:12:15;;;;;;;0.00;0.00;;;24.20;46.30;;;;;;5011325;28;20204;-43
2024/02/25 08:14:46;;;;;;;0.00;0.00;;;24.20;46.40;;;;;;5009845;28;20200;-42
2024/02/25 08:17:16;;;;;;;0.00;0.00;;;24.20;46.50;;;;;;5011323;28;20220;-42
2024/02/25 08:19:47;;;;;;;0.00;0.00;;;24.20;46.60;;;;;;5011038;28;20236;-41
2024/02/25 08:22:19;;;;;;;0.00;0.00;;;24.20;46.70;;;;;;5013176;28;20200;-41
2024/02/25 08:24:51;;;;;;;0.05;0.05;;;24.20;46.80;;;;;;5030607;28;20200;-41
2024/02/25 08:27:23;;;;;;;0.00;0.00;;;24.20;47.00;;;;;;5030111;28;20215;-42
2024/02/25 08:29:54;;;;;;;0.00;0.00;;;24.20;47.00;;;;;;5012840;28;20217;-42
2024/02/25 08:32:25;;;;;;;0.00;0.00;;;24.20;47.00;;;;;;5010863;28;20227;-42
2024/02/25 08:34:55;;;;;;;0.00;0.00;;;24.20;47.60;;;;;;5010781;28;20197;-41
2024/02/25 08:37:27;;;;;;;0.00;0.00;;;24.30;47.10;;;;;;5020539;28;20224;-41
2024/02/25 08:39:59;;;;;;;0.00;0.00;;;24.30;47.10;;;;;;5030536;28;20220;-41
2024/02/25 08:42:30;;;;;;;0.00;0.00;;;24.30;47.20;;;;;;5029768;28;20719;-42
2024/02/25 08:45:01;;;;;;;0.00;0.00;;;24.30;47.20;;;;;;5030117;28;20570;-41
2024/02/25 08:47:31;;;;;;;0.00;0.00;;;24.30;47.20;;;;;;5030574;28;20296;-40
2024/02/25 08:50:02;;;;;;;0.00;0.00;;;24.30;47.20;;;;;;5029656;28;20216;-41
2024/02/25 08:52:33;;;;;;;0.10;0.10;;;24.30;47.20;;;;;;5014376;28;20268;-41
2024/02/25 08:55:06;;;;;;;0.10;0.10;;;24.30;47.30;;;;;;5008873;28;20201;-41
2024/02/25 08:57:36;;;;;;;0.00;0.00;;;24.30;47.40;;;;;;5010416;28;20228;-41
2024/02/25 09:00:09;;;;;;;0.00;0.00;;;24.30;47.40;;;;;;5009627;28;20217;-42
2024/02/25 09:02:40;;;;;;;0.00;0.00;;;24.30;47.40;;;;;;5009660;28;20208;-43
2024/02/25 09:05:11;;;;;;;0.00;0.00;;;24.20;47.50;;;;;;5011985;28;20219;-44
2024/02/25 09:07:42;;;;;;;0.00;0.00;;;24.20;47.40;;;;;;5009484;28;20208;-42
2024/02/25 09:10:18;;;;;;;0.00;0.00;;;24.20;47.40;;;;;;5010441;28;20217;-43
2024/02/25 09:12:49;;;;;;;0.10;0.10;;;24.20;47.50;;;;;;5010018;28;20201;-43
2024/02/25 09:15:21;;;;;;;0.00;0.00;;;24.20;47.40;;;;;;5010179;28;20255;-43
2024/02/25 09:17:54;;;;;;;0.00;0.00;;;24.20;47.50;;;;;;5017072;28;20242;-43
2024/02/25 09:20:27;;;;;;;0.00;0.00;;;24.30;47.40;;;;;;5029435;28;20227;-43
2024/02/25 09:23:00;;;;;;;0.00;0.00;;;24.30;47.40;;;;;;5029543;28;20216;-42
2024/02/25 09:25:35;;;;;;;0.00;0.00;;;24.30;47.40;;;;;;5029085;28;20677;-42
2024/02/25 09:28:08;;;;;;;0.00;0.00;;;24.30;47.40;;;;;;5029176;28;20684;-42
2024/02/25 09:30:38;;;;;;;0.00;0.00;;;24.30;47.40;;;;;;4997198;28;20217;-43
2024/02/25 09:33:09;;;;;;;0.00;0.00;;;24.30;47.40;;;;;;4990256;28;20229;-41
2024/02/25 09:35:40;;;;;;;0.00;0.00;;;24.20;47.50;;;;;;4989832;28;20212;-41
2024/02/25 09:38:10;;;;;;;0.10;0.10;;;24.30;47.50;;;;;;4990171;28;20612;-41
2024/02/25 09:40:43;;;;;;;0.00;0.00;;;24.20;47.50;;;;;;4989130;28;20232;-41
2024/02/25 09:43:16;;;;;;;0.00;0.00;;;24.20;47.60;;;;;;4989436;28;20205;-41
2024/02/25 09:45:49;;;;;;;0.00;0.00;;;24.20;47.60;;;;;;5027977;28;20219;-41
2024/02/25 09:48:20;;;;;;;0.00;0.00;;;24.20;47.70;;;;;;5029073;28;20213;-41
2024/02/25 09:50:52;;;;;;;0.00;0.00;;;24.20;47.70;;;;;;5025996;28;20227;-42
2024/02/25 09:53:23;;;;;;;0.05;0.05;;;24.20;47.70;;;;;;5006665;28;20193;-42
2024/02/25 09:55:56;;;;;;;0.00;0.00;;;24.20;47.80;;;;;;5009729;28;20204;-42
2024/02/25 09:58:27;;;;;;;0.00;0.00;;;24.10;47.60;;;;;;5028197;28;20231;-41
2024/02/25 10:00:58;;;;;;;0.00;0.00;;;24.20;47.70;;;;;;5022764;28;20270;-42
2024/02/25 10:03:29;;;;;;;0.00;0.00;;;24.20;47.60;;;;;;5008305;28;20700;-41
2024/02/25 10:06:00;;;;;;;0.00;0.00;;;24.20;47.60;;;;;;4997493;28;20197;-41
2024/02/25 10:08:30;;;;;;;0.00;0.00;;;24.20;47.60;;;;;;5007752;28;20201;-43
2024/02/25 10:11:05;;;;;;;0.10;0.10;;;24.20;47.60;;;;;;5027654;28;20691;-42
2024/02/25 10:13:36;;;;;;;0.00;0.00;;;24.20;47.60;;;;;;5015671;28;20656;-41
2024/02/25 10:16:07;;;;;;;0.00;0.00;;;24.20;47.50;;;;;;5007774;28;20728;-42
2024/02/25 10:18:37;;;;;;;0.00;0.00;;;24.20;47.50;;;;;;5002076;28;20232;-41
2024/02/25 10:21:10;;;;;;;0.00;0.00;;;24.20;47.50;;;;;;4989361;28;20292;-41
2024/02/25 10:23:41;;;;;;;0.00;0.00;;;24.20;47.50;;;;;;5006737;28;20200;-42
2024/02/25 10:26:17;;;;;;;0.00;0.00;;;24.20;47.50;;;;;;5027313;28;20587;-41
2024/02/25 10:28:48;;;;;;;0.03;0.03;;;24.10;47.40;;;;;;5018903;28;20324;-44
2024/02/25 10:31:18;;;;;;;0.10;0.10;;;24.20;47.60;;;;;;5007839;28;20646;-43
2024/02/25 10:33:49;;;;;;;0.00;0.00;;;24.10;47.50;;;;;;5008161;28;20204;-41
2024/02/25 10:36:24;;;;;;;0.00;0.00;;;24.10;47.60;;;;;;5009467;28;20201;-43
2024/02/25 10:38:56;;;;;;;0.00;0.00;;;24.10;47.70;;;;;;5009357;28;20307;-42
2024/02/25 10:41:30;;;;;;;0.00;0.00;;;24.10;47.70;;;;;;5005932;28;20225;-43
2024/02/25 10:44:04;;;;;;;0.00;0.00;;;24.10;47.70;;;;;;5002001;28;20596;-41
2024/02/25 10:46:44;;;;;;;0.00;0.00;;;24.10;47.70;;;;;;5001485;28;20298;-44
2024/02/25 10:49:17;;;;;;;0.00;0.00;;;24.00;47.70;;;;;;5001481;28;20205;-41
2024/02/25 10:51:49;;;;;;;0.00;0.00;;;24.10;47.80;;;;;;5000949;28;20212;-42
2024/02/25 10:54:20;;;;;;;0.00;0.00;;;24.10;47.70;;;;;;5000654;28;20234;-42
2024/02/25 10:56:53;;;;;;;0.00;0.00;;;24.10;47.70;;;;;;5000067;28;20197;-42
2024/02/25 10:59:25;;;;;;;0.10;0.10;;;24.10;47.70;;;;;;5000041;28;20224;-42
2024/02/25 11:01:57;;;;;;;0.10;0.10;;;24.10;47.70;;;;;;5000943;28;20201;-43
2024/02/25 11:04:28;;;;;;;0.00;0.00;;;24.10;47.70;;;;;;5000509;28;20197;-41
2024/02/25 11:06:59;;;;;;;0.00;0.00;;;24.10;47.70;;;;;;5000460;28;20733;-41
2024/02/25 11:09:33;;;;;;;0.00;0.00;;;24.10;47.60;;;;;;5000288;28;20259;-40
2024/02/25 11:12:26;;;;;;;0.00;0.00;;;24.10;47.60;;;;;;5008820;28;20188;-43
2024/02/25 11:15:02;;;;;;;0.10;0.10;;;24.10;47.60;;;;;;5011640;28;20653;-42
2024/02/25 11:17:34;;;;;;;0.00;0.00;;;24.00;47.50;;;;;;5011486;28;20196;-42
2024/02/25 11:20:06;;;;;;;0.00;0.00;;;24.00;47.50;;;;;;5010983;28;20236;-41
2024/02/25 11:22:47;;;;;;;0.00;0.00;;;24.10;47.60;;;;;;5011467;28;20204;-41
2024/02/25 11:25:39;;;;;;;0.00;0.00;;;24.00;47.60;;;;;;5011302;28;20211;-42
2024/02/25 11:28:17;;;;;;;0.00;0.00;;;24.00;47.50;;;;;;5011430;28;20211;-41
2024/02/25 11:30:49;;;;;;;0.10;0.10;;;24.00;47.50;;;;;;5010870;28;20236;-41
2024/02/25 11:33:42;;;;;;;0.00;0.00;;;24.00;47.50;;;;;;5011410;28;20203;-41
2024/02/25 11:36:16;;;;;;;0.00;0.00;;;24.00;47.50;;;;;;5007506;28;20193;-41
2024/02/25 11:38:49;;;;;;;0.00;0.00;;;24.00;47.50;;;;;;5014905;28;20319;-43
2024/02/25 11:41:26;;;;;;;0.00;0.00;;;24.00;47.50;;;;;;5015506;28;20200;-44
2024/02/25 11:44:00;;;;;;;0.00;0.00;;;23.90;47.50;;;;;;5015489;28;20201;-42
2024/02/25 11:46:30;;;;;;;0.00;0.00;;;23.90;47.50;;;;;;5011684;28;20185;-42
2024/02/25 11:49:02;;;;;;;0.00;0.00;;;23.90;47.50;;;;;;5015273;28;20193;-44
2024/02/25 11:51:33;;;;;;;0.00;0.00;;;23.90;47.50;;;;;;5014999;28;20610;-42
2024/02/25 11:54:04;;;;;;;0.00;0.00;;;23.90;47.50;;;;;;5015105;28;20208;-41
2024/02/25 11:56:34;;;;;;;0.00;0.00;;;23.90;47.50;;;;;;5014975;28;20653;-41
2024/02/25 11:59:07;;;;;;;0.00;0.00;;;23.90;47.50;;;;;;5014981;28;20249;-43
2024/02/25 12:01:39;;;;;;;0.00;0.00;;;23.90;47.50;;;;;;5014757;28;20208;-42
2024/02/25 12:04:09;;;;;;;0.00;0.00;;;23.90;47.40;;;;;;5014761;28;20222;-42
2024/02/25 12:06:40;;;;;;;0.00;0.00;;;23.80;47.40;;;;;;5014068;28;20652;-42
2024/02/25 12:09:11;;;;;;;0.00;0.00;;;23.90;47.40;;;;;;5014457;28;20221;-41
2024/02/25 12:11:42;;;;;;;0.05;0.05;;;23.80;47.40;;;;;;5014784;28;20680;-43
2024/02/25 12:14:23;;;;;;;0.00;0.00;;;23.80;47.30;;;;;;5015187;28;20647;-42
2024/02/25 12:16:54;;;;;;;0.00;0.00;;;23.80;47.40;;;;;;5002345;28;20205;-42
2024/02/25 12:19:25;;;;;;;0.00;0.00;;;23.80;47.40;;;;;;4995052;28;20233;-42
2024/02/25 12:21:56;;;;;;;0.00;0.00;;;23.80;47.40;;;;;;4995055;28;20194;-42
2024/02/25 12:24:27;;;;;;;0.00;0.00;;;23.80;47.40;;;;;;4995133;28;20219;-42
2024/02/25 12:26:59;;;;;;;0.00;0.00;;;23.70;47.30;;;;;;4994931;28;20201;-41
2024/02/25 12:29:38;;;;;;;0.00;0.00;;;23.70;47.30;;;;;;4994374;28;20281;-41
2024/02/25 12:32:11;;;;;;;0.00;0.00;;;23.70;47.30;;;;;;4995027;28;20193;-43
2024/02/25 12:34:43;;;;;;;0.00;0.00;;;23.70;47.40;;;;;;4995053;28;20193;-41
2024/02/25 12:37:17;;;;;;;0.00;0.00;;;23.70;47.40;;;;;;5013223;28;20201;-42
2024/02/25 12:39:48;;;;;;;0.00;0.00;;;23.70;47.40;;;;;;5013638;28;20601;-41
2024/02/25 12:42:20;;;;;;;0.00;0.00;;;23.70;47.40;;;;;;5014280;28;20254;-41
2024/02/25 12:44:53;;;;;;;0.00;0.00;;;23.60;47.30;;;;;;5014560;28;20649;-43
2024/02/25 12:47:23;;;;;;;0.10;0.10;;;23.60;47.30;;;;;;5014093;28;20201;-42
2024/02/25 12:49:54;;;;;;;0.00;0.00;;;23.60;47.40;;;;;;5013282;28;20701;-41
2024/02/25 12:52:25;;;;;;;0.00;0.00;;;23.60;47.30;;;;;;5014150;28;20196;-42
2024/02/25 12:54:56;;;;;;;0.00;0.00;;;23.60;47.40;;;;;;5014040;28;20204;-42
2024/02/25 12:57:26;;;;;;;0.10;0.10;;;23.60;47.30;;;;;;5014146;28;20661;-45
2024/02/25 12:59:59;;;;;;;0.00;0.00;;;23.60;47.40;;;;;;5013684;28;20247;-42
2024/02/25 13:02:29;;;;;;;0.00;0.00;;;23.60;47.30;;;;;;5013581;28;20579;-42
2024/02/25 13:05:00;;;;;;;0.00;0.00;;;23.50;47.80;;;;;;5013884;28;20201;-41
2024/02/25 13:07:31;;;;;;;0.00;0.00;;;23.50;47.20;;;;;;5013916;28;20201;-43
2024/02/25 13:10:04;;;;;;;0.00;0.00;;;23.50;47.30;;;;;;5013715;28;20573;-42